Time;durP1;ratioP1;P1;durP2;ratioP2;P2;SDS_P1;SDS_P2;PMS_P1;PMS_P2;Temp;Humidity;BMP_temperature;BMP_pressure;BME280_temperature;BME280_humidity;BME280_pressure;Samples;Min_cycle;Max_cycle;Signal;HPM_P1;HPM_P2
2022/12/16 00:01:57;;;;;;;75.38;39.38;;;-6.00;99.90;;;;;;5074848;28;20528;-55
2022/12/16 00:04:43;;;;;;;76.90;41.45;;;-6.00;99.90;;;;;;5074954;28;20099;-52
2022/12/16 00:07:29;;;;;;;63.42;35.05;;;-6.10;99.90;;;;;;5088114;28;20454;-47
2022/12/16 00:10:15;;;;;;;60.58;33.47;;;-6.20;99.90;;;;;;5094327;28;20393;-48
2022/12/16 00:13:01;;;;;;;61.40;34.05;;;-6.20;99.90;;;;;;5088941;28;20036;-48
2022/12/16 00:15:47;;;;;;;66.35;34.20;;;-6.40;99.90;;;;;;5093804;28;20042;-50
2022/12/16 00:18:33;;;;;;;60.80;35.35;;;-6.50;99.90;;;;;;5045819;28;20505;-52
2022/12/16 00:21:19;;;;;;;66.80;36.60;;;-6.50;99.90;;;;;;5074421;28;20025;-50
2022/12/16 00:24:05;;;;;;;68.78;35.00;;;-6.60;99.90;;;;;;5094040;28;20511;-50
2022/12/16 00:26:51;;;;;;;63.63;33.58;;;-6.60;99.90;;;;;;5082450;28;20389;-47
2022/12/16 00:29:37;;;;;;;60.47;32.80;;;-6.60;99.90;;;;;;5070304;28;20067;-49
2022/12/16 00:32:23;;;;;;;57.22;30.45;;;-6.60;99.90;;;;;;5087898;28;20035;-48
2022/12/16 00:35:09;;;;;;;62.95;32.47;;;-6.70;99.90;;;;;;5085619;28;20028;-51
2022/12/16 00:37:55;;;;;;;59.83;34.47;;;-6.70;99.90;;;;;;5093208;28;20403;-51
2022/12/16 00:40:42;;;;;;;63.85;32.08;;;-6.70;99.90;;;;;;5088896;28;20029;-51
2022/12/16 00:43:28;;;;;;;54.30;31.52;;;-6.70;99.90;;;;;;5073645;28;20388;-52
2022/12/16 00:46:13;;;;;;;54.17;30.40;;;-6.50;99.90;;;;;;5083334;28;20101;-48
2022/12/16 00:48:59;;;;;;;55.83;30.02;;;-6.50;99.90;;;;;;5093063;28;20534;-50
2022/12/16 00:51:45;;;;;;;59.45;29.73;;;-6.40;99.90;;;;;;5065032;28;20404;-50
2022/12/16 00:54:31;;;;;;;54.58;30.55;;;-6.40;99.90;;;;;;5074452;28;20523;-51
2022/12/16 00:57:17;;;;;;;53.08;30.83;;;-6.40;99.90;;;;;;5089903;28;20051;-50
2022/12/16 01:00:04;;;;;;;47.70;29.85;;;-6.40;99.90;;;;;;5093115;28;20111;-48
2022/12/16 01:02:50;;;;;;;54.03;31.27;;;-6.50;99.90;;;;;;5053358;28;20029;-50
2022/12/16 01:05:37;;;;;;;51.80;31.42;;;-6.50;99.90;;;;;;5055167;28;20025;-51
2022/12/16 01:08:23;;;;;;;53.25;31.23;;;-6.40;99.90;;;;;;5092718;28;20024;-52
2022/12/16 01:11:09;;;;;;;62.72;32.30;;;-6.40;99.90;;;;;;5091250;28;20516;-50
2022/12/16 01:13:55;;;;;;;55.65;31.30;;;-6.40;99.90;;;;;;5092846;28;20089;-48
2022/12/16 01:16:41;;;;;;;51.92;29.80;;;-6.50;99.90;;;;;;5079873;28;20378;-50
2022/12/16 01:19:27;;;;;;;56.42;29.65;;;-6.50;99.90;;;;;;5072858;28;20106;-49
2022/12/16 01:22:13;;;;;;;55.22;29.65;;;-6.60;99.90;;;;;;5058607;28;20053;-50
2022/12/16 01:24:59;;;;;;;50.17;28.70;;;-6.60;99.90;;;;;;5050406;28;20037;-50
2022/12/16 01:27:45;;;;;;;51.70;30.58;;;-6.60;99.90;;;;;;5069950;28;20020;-52
2022/12/16 01:30:31;;;;;;;55.90;29.90;;;-6.60;99.90;;;;;;5074178;28;20029;-53
2022/12/16 01:33:17;;;;;;;52.42;30.92;;;-6.80;99.90;;;;;;5070739;28;20404;-50
2022/12/16 01:36:06;;;;;;;57.30;30.98;;;-7.10;99.90;;;;;;5066671;28;20036;-49
2022/12/16 01:38:52;;;;;;;50.85;29.33;;;-7.20;99.90;;;;;;5049365;28;20070;-50
2022/12/16 01:41:38;;;;;;;50.60;28.10;;;-7.10;99.90;;;;;;5063432;28;20060;-52
2022/12/16 01:44:25;;;;;;;56.15;30.10;;;-7.00;99.90;;;;;;5062021;28;20025;-50
2022/12/16 01:47:23;;;;;;;53.00;29.55;;;-7.00;99.90;;;;;;5047266;28;20021;-51
2022/12/16 01:50:14;;;;;;;52.08;28.80;;;-7.00;99.90;;;;;;5064320;28;20028;-50
2022/12/16 01:53:03;;;;;;;57.05;30.05;;;-7.00;99.90;;;;;;5064844;28;20101;-50
2022/12/16 01:55:51;;;;;;;51.55;29.58;;;-6.90;99.90;;;;;;5063933;28;20032;-52
2022/12/16 01:58:39;;;;;;;54.17;28.48;;;-6.80;99.90;;;;;;5061583;28;20071;-51
2022/12/16 02:01:25;;;;;;;58.03;29.67;;;-7.00;99.90;;;;;;5060180;28;20047;-52
2022/12/16 02:04:12;;;;;;;54.03;29.73;;;-6.90;99.90;;;;;;5062479;28;20025;-52
2022/12/16 02:06:59;;;;;;;50.63;29.90;;;-6.90;99.90;;;;;;5062566;28;20021;-52
2022/12/16 02:09:44;;;;;;;56.33;30.13;;;-6.80;99.90;;;;;;5049649;28;20025;-50
2022/12/16 02:12:47;;;;;;;54.60;29.30;;;-6.80;99.90;;;;;;5063728;28;20079;-49
2022/12/16 02:15:43;;;;;;;51.30;27.48;;;-6.90;99.90;;;;;;5060132;28;20025;-52
2022/12/16 02:19:01;;;;;;;47.28;27.60;;;-6.80;99.90;;;;;;5062042;28;20057;-50
2022/12/16 02:22:15;;;;;;;49.15;28.10;;;-6.90;99.90;;;;;;5064149;28;20060;-50
2022/12/16 02:25:22;;;;;;;45.78;26.75;;;-7.00;99.90;;;;;;5030693;28;20051;-49
2022/12/16 02:28:34;;;;;;;49.92;28.10;;;-7.00;99.90;;;;;;5070289;28;20486;-49
2022/12/16 02:31:33;;;;;;;52.45;28.25;;;-7.00;99.90;;;;;;5060505;28;20048;-55
2022/12/16 02:34:29;;;;;;;45.00;25.92;;;-7.00;99.90;;;;;;5064303;28;20017;-48
2022/12/16 02:37:41;;;;;;;48.45;27.88;;;-6.90;99.90;;;;;;5060290;28;20025;-48
2022/12/16 02:40:49;;;;;;;51.15;27.75;;;-6.80;99.90;;;;;;5062441;28;20066;-48
2022/12/16 02:43:55;;;;;;;52.08;27.98;;;-6.70;99.90;;;;;;5067276;28;20071;-49
2022/12/16 02:46:51;;;;;;;45.22;27.05;;;-6.60;99.90;;;;;;5068795;28;20039;-49
2022/12/16 02:49:49;;;;;;;49.78;26.90;;;-6.60;99.90;;;;;;5061804;28;20020;-49
2022/12/16 02:52:35;;;;;;;48.75;27.92;;;-6.70;99.90;;;;;;5062781;28;20041;-51
2022/12/16 02:55:31;;;;;;;48.28;26.98;;;-6.80;99.90;;;;;;5061738;28;20041;-51
2022/12/16 02:58:36;;;;;;;49.25;27.33;;;-6.90;99.90;;;;;;5062029;28;20021;-50
2022/12/16 03:01:34;;;;;;;47.15;27.55;;;-6.90;99.90;;;;;;5060536;28;20025;-53
2022/12/16 03:04:23;;;;;;;48.25;26.75;;;-6.90;99.90;;;;;;5050844;28;20046;-53
2022/12/16 03:07:12;;;;;;;49.10;26.30;;;-6.90;99.90;;;;;;5068026;28;20443;-49
2022/12/16 03:09:59;;;;;;;49.72;26.20;;;-6.80;99.90;;;;;;5072772;28;20494;-50
2022/12/16 03:12:46;;;;;;;49.33;27.63;;;-6.90;99.90;;;;;;5078632;28;20025;-50
2022/12/16 03:15:34;;;;;;;52.20;26.35;;;-6.90;99.90;;;;;;5073558;28;20095;-48
2022/12/16 03:18:21;;;;;;;44.05;25.42;;;-6.90;99.90;;;;;;5061035;28;20043;-48
2022/12/16 03:21:09;;;;;;;42.28;24.92;;;-6.80;99.90;;;;;;5073779;28;20020;-48
2022/12/16 03:23:59;;;;;;;44.55;23.48;;;-6.90;99.90;;;;;;5060753;28;20047;-49
2022/12/16 03:27:10;;;;;;;48.20;24.70;;;-6.80;99.90;;;;;;5065768;28;20031;-50
2022/12/16 03:30:26;;;;;;;46.28;26.17;;;-6.80;99.90;;;;;;5063708;28;20028;-50
2022/12/16 03:33:25;;;;;;;44.90;25.88;;;-6.90;99.90;;;;;;5061675;28;20024;-52
2022/12/16 03:36:20;;;;;;;42.70;25.63;;;-6.80;99.90;;;;;;5066652;28;20033;-52
2022/12/16 03:39:08;;;;;;;42.88;24.10;;;-6.90;99.90;;;;;;5061154;28;20021;-52
2022/12/16 03:41:55;;;;;;;42.40;24.10;;;-6.90;99.90;;;;;;5063353;28;20033;-51
2022/12/16 03:44:45;;;;;;;47.63;25.05;;;-6.80;99.90;;;;;;5060126;28;20036;-48
2022/12/16 03:47:31;;;;;;;47.95;25.67;;;-6.90;99.90;;;;;;5063050;28;20031;-49
2022/12/16 03:50:20;;;;;;;48.58;27.17;;;-7.00;99.90;;;;;;5058538;28;20039;-50
2022/12/16 03:53:06;;;;;;;41.00;23.73;;;-7.00;99.90;;;;;;5061027;28;20025;-49
2022/12/16 03:55:53;;;;;;;41.25;25.33;;;-6.90;99.90;;;;;;5060472;28;20040;-50
2022/12/16 03:58:39;;;;;;;46.35;25.70;;;-6.90;99.90;;;;;;5061392;28;20063;-50
2022/12/16 04:01:25;;;;;;;45.22;24.63;;;-7.00;99.90;;;;;;5061930;28;20089;-50
2022/12/16 04:04:11;;;;;;;48.15;25.02;;;-7.10;99.90;;;;;;5061985;28;20039;-51
2022/12/16 04:10:02;;;;;;;44.33;23.55;;;-7.10;99.90;;;;;;5060231;28;20021;-50
2022/12/16 04:25:14;;;;;;;43.28;25.33;;;-7.10;99.90;;;;;;5063220;28;20029;-51
2022/12/16 04:28:00;;;;;;;43.72;25.45;;;-7.00;99.90;;;;;;5062104;28;20020;-49
2022/12/16 04:30:46;;;;;;;43.20;24.90;;;-7.00;99.90;;;;;;5067575;28;20508;-53
